sensor_id;sensor_type;location;lat;lon;timestamp;pressure;altitude;pressure_sealevel;temperature;humidity
55373;BME280;41249;47.838;16.490;2023-04-15T00:00:59;97980.56;;;-1.16;91.85
55373;BME280;41249;47.838;16.490;2023-04-15T00:03:26;97982.84;;;-1.18;92.28
55373;BME280;41249;47.838;16.490;2023-04-15T00:05:54;97975.81;;;-1.19;92.25
55373;BME280;41249;47.838;16.490;2023-04-15T00:08:20;97974.69;;;-1.18;92.34
55373;BME280;41249;47.838;16.490;2023-04-15T00:10:47;97975.91;;;-1.15;92.31
55373;BME280;41249;47.838;16.490;2023-04-15T00:13:14;97978.28;;;-1.14;92.11
55373;BME280;41249;47.838;16.490;2023-04-15T00:15:41;97983.03;;;-1.11;91.87
55373;BME280;41249;47.838;16.490;2023-04-15T00:18:08;97979.16;;;-1.10;92.02
55373;BME280;41249;47.838;16.490;2023-04-15T00:20:35;97982.22;;;-1.11;92.49
55373;BME280;41249;47.838;16.490;2023-04-15T00:23:02;97980.31;;;-1.11;92.08
55373;BME280;41249;47.838;16.490;2023-04-15T00:25:29;97982.16;;;-1.15;92.47
55373;BME280;41249;47.838;16.490;2023-04-15T00:27:56;97987.50;;;-1.18;92.68
55373;BME280;41249;47.838;16.490;2023-04-15T00:30:23;97989.91;;;-1.17;92.54
55373;BME280;41249;47.838;16.490;2023-04-15T00:32:49;97990.59;;;-1.20;92.85
55373;BME280;41249;47.838;16.490;2023-04-15T00:35:16;97994.28;;;-1.12;92.93
55373;BME280;41249;47.838;16.490;2023-04-15T00:37:43;97991.34;;;-1.03;92.88
55373;BME280;41249;47.838;16.490;2023-04-15T00:40:12;98001.13;;;-0.87;92.83
55373;BME280;41249;47.838;16.490;2023-04-15T00:42:39;97997.00;;;-0.96;92.13
55373;BME280;41249;47.838;16.490;2023-04-15T00:45:06;97995.66;;;-1.02;92.54
55373;BME280;41249;47.838;16.490;2023-04-15T00:47:35;97998.41;;;-1.02;92.72
55373;BME280;41249;47.838;16.490;2023-04-15T00:50:03;98001.81;;;-1.05;92.46
55373;BME280;41249;47.838;16.490;2023-04-15T00:52:30;97999.53;;;-1.03;93.21
55373;BME280;41249;47.838;16.490;2023-04-15T00:54:57;97998.94;;;-0.97;92.84
55373;BME280;41249;47.838;16.490;2023-04-15T00:57:24;97999.25;;;-0.98;92.53
55373;BME280;41249;47.838;16.490;2023-04-15T00:59:52;97997.59;;;-1.03;92.39
55373;BME280;41249;47.838;16.490;2023-04-15T01:02:19;97999.53;;;-1.03;92.74
55373;BME280;41249;47.838;16.490;2023-04-15T01:04:46;98002.06;;;-0.95;92.97
55373;BME280;41249;47.838;16.490;2023-04-15T01:07:13;97998.91;;;-0.81;92.45
55373;BME280;41249;47.838;16.490;2023-04-15T01:09:40;97999.06;;;-0.74;92.87
55373;BME280;41249;47.838;16.490;2023-04-15T01:12:09;98001.84;;;-0.71;92.70
55373;BME280;41249;47.838;16.490;2023-04-15T01:14:37;98011.81;;;-0.78;92.45
55373;BME280;41249;47.838;16.490;2023-04-15T01:17:04;98007.84;;;-0.81;92.68
55373;BME280;41249;47.838;16.490;2023-04-15T01:19:30;98003.47;;;-0.85;92.43
55373;BME280;41249;47.838;16.490;2023-04-15T01:21:57;98006.91;;;-0.88;92.18
55373;BME280;41249;47.838;16.490;2023-04-15T01:24:25;98010.78;;;-0.89;92.43
55373;BME280;41249;47.838;16.490;2023-04-15T01:26:53;98009.88;;;-0.93;92.43
55373;BME280;41249;47.838;16.490;2023-04-15T01:29:19;98009.47;;;-0.95;92.47
55373;BME280;41249;47.838;16.490;2023-04-15T01:31:50;98014.19;;;-0.92;93.21
55373;BME280;41249;47.838;16.490;2023-04-15T01:34:18;98008.31;;;-0.94;93.20
55373;BME280;41249;47.838;16.490;2023-04-15T01:36:44;98008.16;;;-1.01;93.24
55373;BME280;41249;47.838;16.490;2023-04-15T01:39:12;98005.88;;;-0.99;93.61
55373;BME280;41249;47.838;16.490;2023-04-15T01:41:39;98011.38;;;-0.96;93.48
55373;BME280;41249;47.838;16.490;2023-04-15T01:44:07;98004.72;;;-0.98;93.51
55373;BME280;41249;47.838;16.490;2023-04-15T01:46:34;98019.22;;;-0.94;93.69
55373;BME280;41249;47.838;16.490;2023-04-15T01:49:01;98017.03;;;-0.89;93.17
55373;BME280;41249;47.838;16.490;2023-04-15T01:51:28;98012.34;;;-0.88;93.66
55373;BME280;41249;47.838;16.490;2023-04-15T01:53:56;98017.03;;;-0.89;93.71
55373;BME280;41249;47.838;16.490;2023-04-15T01:56:22;98017.03;;;-0.89;93.50
55373;BME280;41249;47.838;16.490;2023-04-15T01:58:50;98013.94;;;-0.87;93.48
55373;BME280;41249;47.838;16.490;2023-04-15T02:01:17;98020.25;;;-0.83;93.71
55373;BME280;41249;47.838;16.490;2023-04-15T02:03:46;98017.63;;;-0.80;93.71
55373;BME280;41249;47.838;16.490;2023-04-15T02:06:13;98023.13;;;-0.76;93.84
55373;BME280;41249;47.838;16.490;2023-04-15T02:08:40;98020.88;;;-0.74;93.71
55373;BME280;41249;47.838;16.490;2023-04-15T02:11:07;98022.16;;;-0.68;93.76
55373;BME280;41249;47.838;16.490;2023-04-15T02:13:33;98021.09;;;-0.64;93.41
55373;BME280;41249;47.838;16.490;2023-04-15T02:16:00;98027.34;;;-0.63;93.87
55373;BME280;41249;47.838;16.490;2023-04-15T02:18:27;98020.47;;;-0.57;93.36
55373;BME280;41249;47.838;16.490;2023-04-15T02:20:54;98027.84;;;-0.58;92.92
55373;BME280;41249;47.838;16.490;2023-04-15T02:23:23;98025.22;;;-0.54;92.99
55373;BME280;41249;47.838;16.490;2023-04-15T02:25:49;98030.03;;;-0.48;93.43
55373;BME280;41249;47.838;16.490;2023-04-15T02:28:19;98031.16;;;-0.49;92.58
55373;BME280;41249;47.838;16.490;2023-04-15T02:30:49;98027.59;;;-0.53;92.58
55373;BME280;41249;47.838;16.490;2023-04-15T02:33:18;98020.81;;;-0.59;92.72
55373;BME280;41249;47.838;16.490;2023-04-15T02:35:45;98029.63;;;-0.65;92.92
55373;BME280;41249;47.838;16.490;2023-04-15T02:38:12;98018.31;;;-0.67;93.18
55373;BME280;41249;47.838;16.490;2023-04-15T02:40:40;98029.09;;;-0.71;92.95
55373;BME280;41249;47.838;16.490;2023-04-15T02:43:06;98022.69;;;-0.78;92.78
55373;BME280;41249;47.838;16.490;2023-04-15T02:45:33;98026.16;;;-0.81;92.40
55373;BME280;41249;47.838;16.490;2023-04-15T02:48:00;98019.47;;;-0.84;92.95
55373;BME280;41249;47.838;16.490;2023-04-15T02:50:31;98025.00;;;-0.80;92.88
55373;BME280;41249;47.838;16.490;2023-04-15T02:52:58;98026.59;;;-0.79;92.53
55373;BME280;41249;47.838;16.490;2023-04-15T02:55:27;98028.94;;;-0.78;92.51
55373;BME280;41249;47.838;16.490;2023-04-15T02:57:54;98020.78;;;-0.78;92.25
55373;BME280;41249;47.838;16.490;2023-04-15T03:00:21;98025.94;;;-0.73;92.45
55373;BME280;41249;47.838;16.490;2023-04-15T03:02:51;98022.16;;;-0.68;92.51
55373;BME280;41249;47.838;16.490;2023-04-15T03:05:22;98021.44;;;-0.65;92.36
55373;BME280;41249;47.838;16.490;2023-04-15T03:07:52;98019.88;;;-0.66;92.43
55373;BME280;41249;47.838;16.490;2023-04-15T03:10:20;98035.50;;;-0.63;92.35
55373;BME280;41249;47.838;16.490;2023-04-15T03:12:47;98020.66;;;-0.66;92.52
55373;BME280;41249;47.838;16.490;2023-04-15T03:15:14;98026.91;;;-0.65;92.07
55373;BME280;41249;47.838;16.490;2023-04-15T03:17:40;98030.75;;;-0.66;92.12
55373;BME280;41249;47.838;16.490;2023-04-15T03:20:07;98032.50;;;-0.58;91.73
55373;BME280;41249;47.838;16.490;2023-04-15T03:22:34;98032.19;;;-0.57;92.19
55373;BME280;41249;47.838;16.490;2023-04-15T03:25:01;98039.28;;;-0.52;92.02
55373;BME280;41249;47.838;16.490;2023-04-15T03:27:28;98034.16;;;-0.54;92.11
55373;BME280;41249;47.838;16.490;2023-04-15T03:29:54;98036.19;;;-0.51;92.11
55373;BME280;41249;47.838;16.490;2023-04-15T03:32:22;98033.47;;;-0.51;91.72
55373;BME280;41249;47.838;16.490;2023-04-15T03:34:48;98027.31;;;-0.48;91.70
55373;BME280;41249;47.838;16.490;2023-04-15T03:37:15;98038.22;;;-0.48;92.34
55373;BME280;41249;47.838;16.490;2023-04-15T03:39:42;98039.81;;;-0.47;92.45
55373;BME280;41249;47.838;16.490;2023-04-15T03:42:08;98033.97;;;-0.45;91.69
55373;BME280;41249;47.838;16.490;2023-04-15T03:44:35;98037.41;;;-0.48;91.66
55373;BME280;41249;47.838;16.490;2023-04-15T03:47:02;98038.56;;;-0.49;92.41
55373;BME280;41249;47.838;16.490;2023-04-15T03:49:29;98043.56;;;-0.51;92.33
55373;BME280;41249;47.838;16.490;2023-04-15T03:51:55;98044.03;;;-0.49;92.42
55373;BME280;41249;47.838;16.490;2023-04-15T03:54:22;98048.69;;;-0.50;92.83
55373;BME280;41249;47.838;16.490;2023-04-15T03:56:49;98051.47;;;-0.46;93.31
55373;BME280;41249;47.838;16.490;2023-04-15T03:59:15;98050.16;;;-0.36;93.16
55373;BME280;41249;47.838;16.490;2023-04-15T04:01:42;98041.59;;;-0.35;92.75
55373;BME280;41249;47.838;16.490;2023-04-15T04:04:08;98051.38;;;-0.34;92.90
55373;BME280;41249;47.838;16.490;2023-04-15T04:06:36;98048.94;;;-0.39;92.65
55373;BME280;41249;47.838;16.490;2023-04-15T04:09:02;98053.22;;;-0.38;93.00
55373;BME280;41249;47.838;16.490;2023-04-15T04:11:29;98055.66;;;-0.33;93.14
55373;BME280;41249;47.838;16.490;2023-04-15T04:13:57;98057.25;;;-0.32;93.65
55373;BME280;41249;47.838;16.490;2023-04-15T04:16:23;98056.09;;;-0.31;92.98
55373;BME280;41249;47.838;16.490;2023-04-15T04:18:50;98060.69;;;-0.35;93.33
55373;BME280;41249;47.838;16.490;2023-04-15T04:21:16;98058.13;;;-0.28;92.83
55373;BME280;41249;47.838;16.490;2023-04-15T04:23:43;98064.38;;;-0.27;93.46
55373;BME280;41249;47.838;16.490;2023-04-15T04:26:10;98067.25;;;-0.20;93.34
55373;BME280;41249;47.838;16.490;2023-04-15T04:28:36;98073.06;;;-0.22;93.25
55373;BME280;41249;47.838;16.490;2023-04-15T04:31:06;98073.84;;;-0.21;93.83
55373;BME280;41249;47.838;16.490;2023-04-15T04:33:33;98077.72;;;-0.22;92.97
55373;BME280;41249;47.838;16.490;2023-04-15T04:35:59;98075.44;;;-0.20;93.66
55373;BME280;41249;47.838;16.490;2023-04-15T04:38:26;98077.44;;;-0.17;93.26
55373;BME280;41249;47.838;16.490;2023-04-15T04:40:53;98088.88;;;-0.12;93.68
55373;BME280;41249;47.838;16.490;2023-04-15T04:43:20;98094.34;;;-0.12;93.29
55373;BME280;41249;47.838;16.490;2023-04-15T04:45:46;98087.28;;;-0.13;93.23
55373;BME280;41249;47.838;16.490;2023-04-15T04:48:13;98089.72;;;-0.08;93.70
55373;BME280;41249;47.838;16.490;2023-04-15T04:50:40;98097.63;;;-0.03;93.46
55373;BME280;41249;47.838;16.490;2023-04-15T04:53:07;98098.34;;;-0.06;93.95
55373;BME280;41249;47.838;16.490;2023-04-15T04:55:33;98093.78;;;-0.02;93.96
55373;BME280;41249;47.838;16.490;2023-04-15T04:58:02;98102.38;;;0.00;94.04
55373;BME280;41249;47.838;16.490;2023-04-15T05:00:28;98102.81;;;0.02;94.09
55373;BME280;41249;47.838;16.490;2023-04-15T05:02:55;98101.22;;;0.01;93.96
55373;BME280;41249;47.838;16.490;2023-04-15T05:05:22;98093.56;;;0.07;93.79
55373;BME280;41249;47.838;16.490;2023-04-15T05:07:49;98104.19;;;0.12;93.89
55373;BME280;41249;47.838;16.490;2023-04-15T05:10:16;98098.03;;;0.15;94.05
55373;BME280;41249;47.838;16.490;2023-04-15T05:12:43;98099.53;;;0.12;93.65
55373;BME280;41249;47.838;16.490;2023-04-15T05:15:10;98101.97;;;0.17;93.51
55373;BME280;41249;47.838;16.490;2023-04-15T05:17:37;98100.38;;;0.16;93.37
55373;BME280;41249;47.838;16.490;2023-04-15T05:20:04;98100.38;;;0.16;93.43
55373;BME280;41249;47.838;16.490;2023-04-15T05:22:31;98102.13;;;0.25;93.91
55373;BME280;41249;47.838;16.490;2023-04-15T05:24:57;98112.31;;;0.28;93.97
55373;BME280;41249;47.838;16.490;2023-04-15T05:27:24;98112.47;;;0.35;93.89
55373;BME280;41249;47.838;16.490;2023-04-15T05:29:51;98113.31;;;0.39;93.63
55373;BME280;41249;47.838;16.490;2023-04-15T05:32:17;98111.97;;;0.48;93.56
55373;BME280;41249;47.838;16.490;2023-04-15T05:34:44;98120.50;;;0.47;93.26
55373;BME280;41249;47.838;16.490;2023-04-15T05:37:11;98114.41;;;0.53;93.85
55373;BME280;41249;47.838;16.490;2023-04-15T05:39:38;98121.88;;;0.56;93.78
55373;BME280;41249;47.838;16.490;2023-04-15T05:42:04;98125.38;;;0.57;93.87
55373;BME280;41249;47.838;16.490;2023-04-15T05:44:31;98126.09;;;0.54;93.38
55373;BME280;41249;47.838;16.490;2023-04-15T05:46:58;98123.81;;;0.56;93.80
55373;BME280;41249;47.838;16.490;2023-04-15T05:49:24;98126.31;;;0.64;93.38
55373;BME280;41249;47.838;16.490;2023-04-15T05:51:51;98130.81;;;0.76;93.19
55373;BME280;41249;47.838;16.490;2023-04-15T05:54:18;98132.13;;;0.82;92.97
55373;BME280;41249;47.838;16.490;2023-04-15T05:56:45;98131.50;;;0.89;92.70
55373;BME280;41249;47.838;16.490;2023-04-15T05:59:12;98137.59;;;0.82;92.80
55373;BME280;41249;47.838;16.490;2023-04-15T06:01:38;98133.44;;;0.88;93.03
55373;BME280;41249;47.838;16.490;2023-04-15T06:04:05;98134.50;;;1.03;92.85
55373;BME280;41249;47.838;16.490;2023-04-15T06:06:32;98134.75;;;1.17;92.59
55373;BME280;41249;47.838;16.490;2023-04-15T06:08:59;98132.44;;;1.41;92.93
55373;BME280;41249;47.838;16.490;2023-04-15T06:11:26;98142.66;;;1.44;92.31
55373;BME280;41249;47.838;16.490;2023-04-15T06:13:52;98138.94;;;1.33;91.60
55373;BME280;41249;47.838;16.490;2023-04-15T06:16:19;98140.63;;;1.41;92.09
55373;BME280;41249;47.838;16.490;2023-04-15T06:18:45;98136.75;;;1.42;91.79
55373;BME280;41249;47.838;16.490;2023-04-15T06:21:12;98140.44;;;1.54;91.97
55373;BME280;41249;47.838;16.490;2023-04-15T06:23:39;98145.19;;;1.57;91.67
55373;BME280;41249;47.838;16.490;2023-04-15T06:26:07;98144.78;;;1.81;91.56
55373;BME280;41249;47.838;16.490;2023-04-15T06:28:33;98152.31;;;2.13;91.85
55373;BME280;41249;47.838;16.490;2023-04-15T06:31:00;98156.88;;;2.32;91.82
55373;BME280;41249;47.838;16.490;2023-04-15T06:33:27;98159.78;;;2.43;91.21
55373;BME280;41249;47.838;16.490;2023-04-15T06:35:54;98158.28;;;2.49;90.81
55373;BME280;41249;47.838;16.490;2023-04-15T06:38:20;98159.81;;;2.46;91.08
55373;BME280;41249;47.838;16.490;2023-04-15T06:40:47;98162.22;;;2.51;91.37
55373;BME280;41249;47.838;16.490;2023-04-15T06:43:13;98156.81;;;2.58;90.69
55373;BME280;41249;47.838;16.490;2023-04-15T06:45:40;98159.38;;;2.74;91.10
55373;BME280;41249;47.838;16.490;2023-04-15T06:48:07;98169.75;;;2.91;90.88
55373;BME280;41249;47.838;16.490;2023-04-15T06:50:33;98171.09;;;3.08;91.09
55373;BME280;41249;47.838;16.490;2023-04-15T06:53:01;98173.25;;;3.25;91.42
55373;BME280;41249;47.838;16.490;2023-04-15T06:55:28;98174.22;;;3.39;90.55
55373;BME280;41249;47.838;16.490;2023-04-15T06:57:55;98172.75;;;3.53;90.59
55373;BME280;41249;47.838;16.490;2023-04-15T07:00:21;98179.47;;;3.59;89.84
55373;BME280;41249;47.838;16.490;2023-04-15T07:02:48;98176.91;;;3.76;89.37
55373;BME280;41249;47.838;16.490;2023-04-15T07:05:15;98186.97;;;3.65;89.43
55373;BME280;41249;47.838;16.490;2023-04-15T07:07:42;98183.06;;;3.66;88.91
55373;BME280;41249;47.838;16.490;2023-04-15T07:10:08;98196.47;;;3.71;89.63
55373;BME280;41249;47.838;16.490;2023-04-15T07:12:37;98191.81;;;3.79;88.60
55373;BME280;41249;47.838;16.490;2023-04-15T07:15:04;98194.06;;;3.66;87.97
55373;BME280;41249;47.838;16.490;2023-04-15T07:17:31;98204.25;;;3.66;88.43
55373;BME280;41249;47.838;16.490;2023-04-15T07:19:57;98205.50;;;3.75;87.63
55373;BME280;41249;47.838;16.490;2023-04-15T07:22:24;98195.81;;;3.88;87.80
55373;BME280;41249;47.838;16.490;2023-04-15T07:24:52;98209.94;;;3.90;87.98
55373;BME280;41249;47.838;16.490;2023-04-15T07:27:19;98204.50;;;3.97;87.92
55373;BME280;41249;47.838;16.490;2023-04-15T07:29:47;98208.56;;;4.18;87.83
55373;BME280;41249;47.838;16.490;2023-04-15T07:32:13;98215.72;;;4.26;87.72
55373;BME280;41249;47.838;16.490;2023-04-15T07:34:40;98211.41;;;4.28;87.98
55373;BME280;41249;47.838;16.490;2023-04-15T07:37:08;98219.66;;;4.28;86.80
55373;BME280;41249;47.838;16.490;2023-04-15T07:39:34;98221.63;;;4.31;86.40
55373;BME280;41249;47.838;16.490;2023-04-15T07:42:01;98224.88;;;4.44;86.60
55373;BME280;41249;47.838;16.490;2023-04-15T07:44:29;98222.13;;;4.44;86.09
55373;BME280;41249;47.838;16.490;2023-04-15T07:46:56;98226.09;;;4.53;84.96
55373;BME280;41249;47.838;16.490;2023-04-15T07:49:22;98228.16;;;4.67;85.50
55373;BME280;41249;47.838;16.490;2023-04-15T07:51:49;98235.59;;;4.66;85.29
55373;BME280;41249;47.838;16.490;2023-04-15T07:54:16;98235.72;;;4.95;86.29
55373;BME280;41249;47.838;16.490;2023-04-15T07:56:42;98235.78;;;5.05;84.72
55373;BME280;41249;47.838;16.490;2023-04-15T07:59:09;98236.69;;;5.27;84.58
55373;BME280;41249;47.838;16.490;2023-04-15T08:01:36;98229.69;;;5.58;84.56
55373;BME280;41249;47.838;16.490;2023-04-15T08:04:04;98239.13;;;5.60;83.73
55373;BME280;41249;47.838;16.490;2023-04-15T08:06:31;98249.38;;;5.84;84.18
55373;BME280;41249;47.838;16.490;2023-04-15T08:08:58;98243.88;;;5.88;85.57
55373;BME280;41249;47.838;16.490;2023-04-15T08:11:26;98242.31;;;5.90;85.31
55373;BME280;41249;47.838;16.490;2023-04-15T08:13:53;98250.56;;;5.80;84.34
55373;BME280;41249;47.838;16.490;2023-04-15T08:16:24;98245.44;;;5.82;85.10
55373;BME280;41249;47.838;16.490;2023-04-15T08:18:55;98241.50;;;5.65;80.47
55373;BME280;41249;47.838;16.490;2023-04-15T08:21:23;98246.25;;;5.89;80.26
55373;BME280;41249;47.838;16.490;2023-04-15T08:23:51;98247.44;;;6.02;82.20
55373;BME280;41249;47.838;16.490;2023-04-15T08:26:19;98254.16;;;6.19;81.52
55373;BME280;41249;47.838;16.490;2023-04-15T08:28:47;98260.44;;;6.23;80.70
55373;BME280;41249;47.838;16.490;2023-04-15T08:31:15;98251.00;;;5.96;78.99
55373;BME280;41249;47.838;16.490;2023-04-15T08:33:43;98253.34;;;6.01;79.38
55373;BME280;41249;47.838;16.490;2023-04-15T08:36:09;98266.75;;;5.99;78.47
55373;BME280;41249;47.838;16.490;2023-04-15T08:38:36;98271.84;;;5.86;78.26
55373;BME280;41249;47.838;16.490;2023-04-15T08:41:09;98265.84;;;5.60;78.61
55373;BME280;41249;47.838;16.490;2023-04-15T08:43:46;98262.34;;;5.63;80.13
55373;BME280;41249;47.838;16.490;2023-04-15T08:46:16;98267.09;;;5.69;79.58
55373;BME280;41249;47.838;16.490;2023-04-15T08:48:43;98271.03;;;5.82;79.99
55373;BME280;41249;47.838;16.490;2023-04-15T08:51:11;98268.28;;;6.00;78.85
55373;BME280;41249;47.838;16.490;2023-04-15T08:53:44;98272.63;;;6.08;78.69
55373;BME280;41249;47.838;16.490;2023-04-15T08:56:14;98273.41;;;5.98;80.27
55373;BME280;41249;47.838;16.490;2023-04-15T08:58:45;98278.13;;;5.97;79.40
55373;BME280;41249;47.838;16.490;2023-04-15T09:01:12;98276.19;;;6.19;77.74
55373;BME280;41249;47.838;16.490;2023-04-15T09:03:40;98271.06;;;6.53;76.67
55373;BME280;41249;47.838;16.490;2023-04-15T09:06:07;98269.44;;;6.77;75.76
55373;BME280;41249;47.838;16.490;2023-04-15T09:08:34;98272.22;;;6.80;75.65
55373;BME280;41249;47.838;16.490;2023-04-15T09:11:04;98276.50;;;6.92;76.91
55373;BME280;41249;47.838;16.490;2023-04-15T09:13:31;98278.88;;;7.00;76.29
55373;BME280;41249;47.838;16.490;2023-04-15T09:15:57;98278.47;;;6.95;75.15
55373;BME280;41249;47.838;16.490;2023-04-15T09:18:29;98284.81;;;6.74;74.56
55373;BME280;41249;47.838;16.490;2023-04-15T09:21:06;98290.75;;;6.27;76.78
55373;BME280;41249;47.838;16.490;2023-04-15T09:23:34;98291.13;;;5.86;77.25
55373;BME280;41249;47.838;16.490;2023-04-15T09:26:02;98294.25;;;5.88;76.07
55373;BME280;41249;47.838;16.490;2023-04-15T09:28:29;98292.69;;;5.91;76.39
55373;BME280;41249;47.838;16.490;2023-04-15T09:30:59;98295.81;;;5.79;74.62
55373;BME280;41249;47.838;16.490;2023-04-15T09:33:28;98295.41;;;5.73;76.18
55373;BME280;41249;47.838;16.490;2023-04-15T09:36:03;98301.28;;;5.65;76.65
55373;BME280;41249;47.838;16.490;2023-04-15T09:38:31;98298.88;;;5.53;75.64
55373;BME280;41249;47.838;16.490;2023-04-15T09:40:58;98297.66;;;5.43;75.77
55373;BME280;41249;47.838;16.490;2023-04-15T09:43:39;98298.69;;;5.10;71.14
55373;BME280;41249;47.838;16.490;2023-04-15T09:46:06;98292.50;;;5.24;75.26
55373;BME280;41249;47.838;16.490;2023-04-15T09:48:32;98302.75;;;5.38;75.97
55373;BME280;41249;47.838;16.490;2023-04-15T09:51:00;98309.97;;;5.67;76.00
55373;BME280;41249;47.838;16.490;2023-04-15T09:53:27;98303.66;;;5.70;75.51
55373;BME280;41249;47.838;16.490;2023-04-15T09:55:58;98307.63;;;5.90;73.47
55373;BME280;41249;47.838;16.490;2023-04-15T09:58:32;98313.53;;;5.85;71.96
55373;BME280;41249;47.838;16.490;2023-04-15T10:01:02;98304.75;;;5.41;69.49
55373;BME280;41249;47.838;16.490;2023-04-15T10:03:34;98307.53;;;5.44;69.49
55373;BME280;41249;47.838;16.490;2023-04-15T10:06:02;98316.28;;;5.88;72.26
55373;BME280;41249;47.838;16.490;2023-04-15T10:08:32;98324.59;;;6.27;72.31
55373;BME280;41249;47.838;16.490;2023-04-15T10:11:03;98324.22;;;6.32;69.90
55373;BME280;41249;47.838;16.490;2023-04-15T10:13:31;98317.53;;;6.26;71.83
55373;BME280;41249;47.838;16.490;2023-04-15T10:16:10;98316.34;;;6.34;68.02
55373;BME280;41249;47.838;16.490;2023-04-15T10:18:40;98319.50;;;6.26;70.18
55373;BME280;41249;47.838;16.490;2023-04-15T10:21:08;98331.69;;;6.60;70.48
55373;BME280;41249;47.838;16.490;2023-04-15T10:23:35;98318.66;;;6.99;71.22
55373;BME280;41249;47.838;16.490;2023-04-15T10:26:03;98327.78;;;6.86;71.40
55373;BME280;41249;47.838;16.490;2023-04-15T10:28:30;98323.41;;;7.02;70.14
55373;BME280;41249;47.838;16.490;2023-04-15T10:30:57;98335.66;;;6.73;70.41
55373;BME280;41249;47.838;16.490;2023-04-15T10:33:26;98319.06;;;6.94;69.56
55373;BME280;41249;47.838;16.490;2023-04-15T10:35:54;98322.56;;;7.23;70.38
55373;BME280;41249;47.838;16.490;2023-04-15T10:38:41;98325.53;;;7.67;69.74
55373;BME280;41249;47.838;16.490;2023-04-15T10:43:55;98328.75;;;7.52;66.90
55373;BME280;41249;47.838;16.490;2023-04-15T10:46:24;98324.38;;;7.68;70.26
55373;BME280;41249;47.838;16.490;2023-04-15T10:49:08;98324.38;;;7.68;65.32
55373;BME280;41249;47.838;16.490;2023-04-15T10:51:40;98333.47;;;7.58;66.64
55373;BME280;41249;47.838;16.490;2023-04-15T10:54:12;98321.34;;;7.38;67.69
55373;BME280;41249;47.838;16.490;2023-04-15T10:56:43;98335.09;;;7.49;69.85
55373;BME280;41249;47.838;16.490;2023-04-15T10:59:10;98326.75;;;7.66;69.27
55373;BME280;41249;47.838;16.490;2023-04-15T11:04:50;98338.25;;;7.47;68.01
55373;BME280;41249;47.838;16.490;2023-04-15T11:13:00;98360.91;;;6.72;70.78
55373;BME280;41249;47.838;16.490;2023-04-15T11:18:08;98361.97;;;6.00;71.48
55373;BME280;41249;47.838;16.490;2023-04-15T11:20:36;98359.56;;;5.84;71.76
55373;BME280;41249;47.838;16.490;2023-04-15T11:23:04;98356.41;;;5.82;72.31
55373;BME280;41249;47.838;16.490;2023-04-15T11:25:41;98356.41;;;5.79;73.67
55373;BME280;41249;47.838;16.490;2023-04-15T11:28:10;98356.06;;;5.98;72.49
55373;BME280;41249;47.838;16.490;2023-04-15T11:30:37;98362.00;;;6.14;72.62
55373;BME280;41249;47.838;16.490;2023-04-15T11:33:07;98364.41;;;6.61;70.92
55373;BME280;41249;47.838;16.490;2023-04-15T11:35:35;98366.41;;;6.96;69.05
55373;BME280;41249;47.838;16.490;2023-04-15T11:38:03;98358.78;;;7.39;69.33
55373;BME280;41249;47.838;16.490;2023-04-15T11:40:31;98361.06;;;7.65;67.92
55373;BME280;41249;47.838;16.490;2023-04-15T11:43:13;98362.66;;;7.66;63.10
55373;BME280;41249;47.838;16.490;2023-04-15T11:45:56;98357.97;;;7.56;62.56
55373;BME280;41249;47.838;16.490;2023-04-15T11:48:34;98371.44;;;7.33;66.71
55373;BME280;41249;47.838;16.490;2023-04-15T11:51:02;98364.13;;;7.88;66.17
55373;BME280;41249;47.838;16.490;2023-04-15T11:53:42;98367.13;;;8.22;65.66
55373;BME280;41249;47.838;16.490;2023-04-15T11:56:15;98367.91;;;8.23;66.11
55373;BME280;41249;47.838;16.490;2023-04-15T11:58:42;98367.19;;;8.05;64.35
55373;BME280;41249;47.838;16.490;2023-04-15T12:01:10;98369.31;;;7.72;62.35
55373;BME280;41249;47.838;16.490;2023-04-15T12:03:39;98358.06;;;8.18;64.22
55373;BME280;41249;47.838;16.490;2023-04-15T12:06:17;98366.06;;;8.61;64.82
55373;BME280;41249;47.838;16.490;2023-04-15T12:08:48;98363.31;;;9.01;65.09
55373;BME280;41249;47.838;16.490;2023-04-15T12:11:15;98361.72;;;9.45;64.04
55373;BME280;41249;47.838;16.490;2023-04-15T12:13:49;98366.47;;;9.78;62.75
55373;BME280;41249;47.838;16.490;2023-04-15T12:16:20;98363.94;;;9.91;62.25
55373;BME280;41249;47.838;16.490;2023-04-15T12:18:50;98366.09;;;10.06;63.94
55373;BME280;41249;47.838;16.490;2023-04-15T12:21:31;98369.31;;;10.01;60.22
55373;BME280;41249;47.838;16.490;2023-04-15T12:24:02;98373.47;;;9.86;58.70
55373;BME280;41249;47.838;16.490;2023-04-15T12:29:07;98369.81;;;8.84;57.60
55373;BME280;41249;47.838;16.490;2023-04-15T12:31:46;98366.88;;;8.57;57.56
55373;BME280;41249;47.838;16.490;2023-04-15T12:34:13;98377.19;;;8.50;57.01
55373;BME280;41249;47.838;16.490;2023-04-15T12:36:39;98374.13;;;8.41;57.45
55373;BME280;41249;47.838;16.490;2023-04-15T12:39:06;98377.94;;;8.54;60.78
55373;BME280;41249;47.838;16.490;2023-04-15T12:41:33;98375.41;;;8.26;63.52
55373;BME280;41249;47.838;16.490;2023-04-15T12:44:00;98381.25;;;8.38;61.75
55373;BME280;41249;47.838;16.490;2023-04-15T12:46:26;98382.84;;;8.29;59.97
55373;BME280;41249;47.838;16.490;2023-04-15T12:48:53;98397.03;;;8.38;61.34
55373;BME280;41249;47.838;16.490;2023-04-15T12:51:20;98389.00;;;8.54;61.70
55373;BME280;41249;47.838;16.490;2023-04-15T12:53:47;98386.06;;;8.79;62.33
55373;BME280;41249;47.838;16.490;2023-04-15T12:56:15;98388.50;;;8.73;61.24
55373;BME280;41249;47.838;16.490;2023-04-15T12:58:42;98389.69;;;8.72;59.77
55373;BME280;41249;47.838;16.490;2023-04-15T13:01:09;98398.97;;;8.44;59.23
55373;BME280;41249;47.838;16.490;2023-04-15T13:03:36;98397.59;;;8.05;58.20
55373;BME280;41249;47.838;16.490;2023-04-15T13:06:03;98392.84;;;8.16;60.42
55373;BME280;41249;47.838;16.490;2023-04-15T13:08:30;98393.75;;;7.84;60.34
55373;BME280;41249;47.838;16.490;2023-04-15T13:10:57;98403.94;;;7.98;57.67
55373;BME280;41249;47.838;16.490;2023-04-15T13:13:24;98399.88;;;8.27;59.29
55373;BME280;41249;47.838;16.490;2023-04-15T13:15:50;98399.94;;;8.75;60.25